Time;durP1;ratioP1;P1;durP2;ratioP2;P2;SDS_P1;SDS_P2;PMS_P1;PMS_P2;Temp;Humidity;BMP_temperature;BMP_pressure;BME280_temperature;BME280_humidity;BME280_pressure;Samples;Min_cycle;Max_cycle;Signal;HPM_P1;HPM_P2
2021/12/29 00:02:00;;;;;;;71.70;32.13;;;3.20;99.90;;;;;;5028595;28;20034;-59
2021/12/29 00:04:27;;;;;;;68.30;30.23;;;3.20;99.90;;;;;;5013048;28;20037;-57
2021/12/29 00:06:56;;;;;;;69.97;30.08;;;3.20;99.90;;;;;;5030557;28;20113;-60
2021/12/29 00:09:23;;;;;;;67.80;31.02;;;3.20;99.90;;;;;;5028579;28;20041;-60
2021/12/29 00:11:49;;;;;;;70.90;31.80;;;3.20;99.90;;;;;;5033230;28;20028;-60
2021/12/29 00:14:15;;;;;;;72.57;31.05;;;3.20;99.90;;;;;;5037409;28;20105;-60
2021/12/29 00:16:40;;;;;;;64.18;30.10;;;3.20;99.90;;;;;;5012049;28;20126;-62
2021/12/29 00:19:06;;;;;;;60.28;29.02;;;3.20;99.90;;;;;;5029297;28;20036;-61
2021/12/29 00:21:34;;;;;;;67.03;29.17;;;3.20;99.90;;;;;;5028435;28;20443;-57
2021/12/29 00:24:05;;;;;;;63.65;29.92;;;3.20;99.90;;;;;;5026320;28;20044;-61
2021/12/29 00:26:32;;;;;;;65.63;30.17;;;3.20;99.90;;;;;;5021478;28;20576;-62
2021/12/29 00:28:59;;;;;;;69.50;30.17;;;3.20;99.90;;;;;;5026917;28;20029;-58
2021/12/29 00:31:30;;;;;;;76.18;30.35;;;3.30;99.90;;;;;;5028996;28;20021;-60
2021/12/29 00:33:56;;;;;;;69.00;30.67;;;3.30;99.90;;;;;;5027499;28;20026;-61
2021/12/29 00:36:22;;;;;;;74.57;32.15;;;3.30;99.90;;;;;;5022595;28;20026;-61
2021/12/29 00:38:48;;;;;;;68.32;30.00;;;3.30;99.90;;;;;;5027544;28;20025;-61
2021/12/29 00:41:15;;;;;;;66.22;29.50;;;3.40;99.90;;;;;;5028510;28;20499;-61
2021/12/29 00:43:40;;;;;;;67.63;29.90;;;3.40;99.90;;;;;;5027703;28;20034;-61
2021/12/29 00:46:08;;;;;;;68.57;30.25;;;3.30;99.90;;;;;;4999984;28;20107;-61
2021/12/29 00:48:38;;;;;;;69.93;30.02;;;3.40;99.90;;;;;;5028523;28;20048;-61
2021/12/29 00:51:04;;;;;;;69.53;30.30;;;3.50;99.90;;;;;;5027949;28;20065;-61
2021/12/29 00:53:30;;;;;;;65.75;28.77;;;3.50;99.90;;;;;;5028242;28;20115;-61
2021/12/29 00:55:55;;;;;;;69.25;29.10;;;3.50;99.90;;;;;;5022498;28;20088;-60
2021/12/29 00:58:21;;;;;;;65.82;28.45;;;3.50;99.90;;;;;;5028725;28;20457;-60
2021/12/29 01:00:47;;;;;;;66.05;28.50;;;3.40;99.90;;;;;;5028380;28;20047;-60
2021/12/29 01:03:13;;;;;;;62.75;27.40;;;3.40;99.90;;;;;;5026259;28;20612;-60
2021/12/29 01:05:39;;;;;;;64.03;29.65;;;3.40;99.90;;;;;;5010297;28;20284;-60
2021/12/29 01:08:06;;;;;;;65.68;28.13;;;3.40;99.90;;;;;;5029604;28;20109;-60
2021/12/29 01:10:33;;;;;;;65.25;28.90;;;3.50;99.90;;;;;;5030791;28;20478;-60
2021/12/29 01:13:01;;;;;;;64.68;28.80;;;3.50;99.90;;;;;;5031982;28;20443;-60
2021/12/29 01:15:36;;;;;;;66.95;28.88;;;3.50;99.90;;;;;;5030382;28;20069;-61
2021/12/29 01:18:05;;;;;;;63.92;28.58;;;3.50;99.90;;;;;;5030401;28;20029;-60
2021/12/29 01:20:31;;;;;;;72.32;28.50;;;3.50;99.90;;;;;;5031658;28;20041;-60
2021/12/29 01:22:59;;;;;;;65.85;28.30;;;3.50;99.90;;;;;;5031005;28;20029;-61
2021/12/29 01:25:25;;;;;;;69.07;29.50;;;3.50;99.90;;;;;;5027826;28;20072;-62
2021/12/29 01:27:51;;;;;;;83.63;31.63;;;3.50;99.90;;;;;;5026236;28;20037;-59
2021/12/29 01:30:18;;;;;;;93.45;32.08;;;3.60;99.90;;;;;;5030687;28;20372;-59
2021/12/29 01:32:44;;;;;;;76.13;30.67;;;3.50;99.90;;;;;;5029409;28;20357;-61
2021/12/29 01:35:11;;;;;;;89.82;32.70;;;3.50;99.90;;;;;;5012917;28;20025;-58
2021/12/29 01:37:38;;;;;;;79.82;31.00;;;3.50;99.90;;;;;;5027051;28;20030;-60
2021/12/29 01:40:07;;;;;;;81.57;30.13;;;3.50;99.90;;;;;;5029949;28;20037;-59
2021/12/29 01:42:33;;;;;;;82.00;32.15;;;3.50;99.90;;;;;;5030396;28;20064;-58
2021/12/29 01:44:59;;;;;;;93.43;35.38;;;3.50;99.90;;;;;;5031021;28;20443;-59
2021/12/29 01:47:31;;;;;;;102.45;35.95;;;3.50;99.90;;;;;;5023623;28;20045;-58
2021/12/29 01:50:00;;;;;;;89.18;33.47;;;3.60;99.90;;;;;;5012604;28;20514;-59
2021/12/29 01:52:31;;;;;;;86.07;32.10;;;3.50;99.90;;;;;;5030064;28;20452;-57
2021/12/29 01:54:57;;;;;;;125.90;34.67;;;3.60;99.90;;;;;;5029936;28;20021;-58
2021/12/29 01:57:23;;;;;;;112.00;35.67;;;3.60;99.90;;;;;;5031122;28;20116;-58
2021/12/29 01:59:49;;;;;;;147.85;39.45;;;3.60;99.90;;;;;;5030040;28;20060;-57
2021/12/29 02:02:14;;;;;;;121.60;35.70;;;3.60;99.90;;;;;;5027370;28;20107;-59
2021/12/29 02:04:42;;;;;;;102.15;34.60;;;3.60;99.90;;;;;;5010404;28;20427;-62
2021/12/29 02:07:10;;;;;;;117.70;35.63;;;3.60;99.90;;;;;;5026811;28;20022;-60
2021/12/29 02:09:36;;;;;;;98.68;34.25;;;3.60;99.90;;;;;;5029731;28;20101;-60
2021/12/29 02:12:02;;;;;;;109.25;36.65;;;3.60;99.90;;;;;;5029236;28;20049;-57
2021/12/29 02:14:28;;;;;;;103.53;37.05;;;3.60;99.90;;;;;;5027883;28;20029;-57
2021/12/29 02:16:54;;;;;;;108.30;35.95;;;3.70;99.90;;;;;;5031206;28;20025;-57
2021/12/29 02:19:20;;;;;;;113.22;36.65;;;3.60;99.90;;;;;;5027602;28;20041;-56
2021/12/29 02:21:56;;;;;;;136.63;37.42;;;3.70;99.90;;;;;;5030138;28;20025;-58
2021/12/29 02:24:33;;;;;;;143.95;39.58;;;3.70;99.90;;;;;;5028845;28;20047;-57
2021/12/29 02:27:01;;;;;;;115.10;35.85;;;3.70;99.90;;;;;;5030835;28;20087;-59
2021/12/29 02:29:27;;;;;;;120.40;38.25;;;3.70;99.90;;;;;;5012677;28;20117;-57
2021/12/29 02:31:53;;;;;;;143.18;38.83;;;3.60;99.90;;;;;;5029022;28;20103;-57
2021/12/29 02:34:18;;;;;;;139.07;38.92;;;3.60;99.90;;;;;;5030978;28;20060;-59
2021/12/29 02:36:45;;;;;;;126.07;39.97;;;3.70;99.90;;;;;;5031173;28;20124;-58
2021/12/29 02:39:18;;;;;;;145.52;39.15;;;3.70;99.90;;;;;;5027695;28;20254;-56
2021/12/29 02:41:50;;;;;;;167.30;40.55;;;3.70;99.90;;;;;;5028858;28;20053;-60
2021/12/29 02:44:20;;;;;;;141.23;37.78;;;3.70;99.90;;;;;;5028826;28;20168;-60
2021/12/29 02:46:47;;;;;;;109.47;37.67;;;3.70;99.90;;;;;;5029426;28;20403;-57
2021/12/29 02:49:14;;;;;;;120.38;39.45;;;3.70;99.90;;;;;;5011905;28;20494;-58
2021/12/29 02:51:40;;;;;;;132.65;37.00;;;3.60;99.90;;;;;;5027847;28;20033;-59
2021/12/29 02:54:07;;;;;;;147.68;39.38;;;3.60;99.90;;;;;;5026119;28;20029;-57
2021/12/29 02:56:33;;;;;;;125.93;36.28;;;3.60;99.90;;;;;;5030216;28;20026;-57
2021/12/29 02:58:59;;;;;;;143.57;37.92;;;3.60;99.90;;;;;;5028970;28;20029;-57
2021/12/29 03:01:27;;;;;;;138.50;37.33;;;3.60;99.90;;;;;;5025066;28;20041;-60
2021/12/29 03:03:54;;;;;;;116.10;35.88;;;3.60;99.90;;;;;;5028269;28;20125;-56
2021/12/29 03:06:20;;;;;;;130.13;38.78;;;3.60;99.90;;;;;;5001784;28;20178;-60
2021/12/29 03:08:46;;;;;;;169.27;39.72;;;3.60;99.90;;;;;;5029996;28;20049;-60
2021/12/29 03:11:12;;;;;;;179.65;40.75;;;3.60;99.90;;;;;;5028290;28;20061;-62
2021/12/29 03:13:39;;;;;;;149.68;39.58;;;3.60;99.90;;;;;;5022212;28;20028;-62
2021/12/29 03:16:06;;;;;;;202.73;40.30;;;3.60;99.90;;;;;;5025996;28;20026;-61
2021/12/29 03:18:32;;;;;;;177.38;40.15;;;3.60;99.90;;;;;;5028990;28;20495;-61
2021/12/29 03:20:57;;;;;;;147.23;40.28;;;3.70;99.90;;;;;;5029345;28;20040;-61
2021/12/29 03:23:24;;;;;;;127.18;36.60;;;3.60;99.90;;;;;;5010922;28;20124;-61
2021/12/29 03:25:51;;;;;;;128.25;38.80;;;3.60;99.90;;;;;;5011614;28;20117;-61
2021/12/29 03:28:18;;;;;;;172.20;41.75;;;3.50;99.90;;;;;;5021764;28;20029;-61
2021/12/29 03:30:48;;;;;;;150.10;38.90;;;3.60;99.90;;;;;;5008059;28;20522;-58
2021/12/29 03:33:14;;;;;;;159.45;39.90;;;3.60;99.90;;;;;;5027534;28;20067;-58
2021/12/29 03:35:43;;;;;;;138.00;40.13;;;3.60;99.90;;;;;;5029248;28;20459;-59
2021/12/29 03:38:15;;;;;;;120.00;36.75;;;3.60;99.90;;;;;;5029263;28;20017;-58
2021/12/29 03:40:41;;;;;;;;;;;3.50;99.90;;;;;;5023421;28;20029;-57
2021/12/29 03:43:09;;;;;;;228.80;40.00;;;3.60;99.90;;;;;;5028559;28;19913;-57
2021/12/29 03:45:37;;;;;;;195.70;40.45;;;3.60;99.90;;;;;;5010431;28;20509;-57
2021/12/29 03:48:04;;;;;;;191.23;38.88;;;3.60;99.90;;;;;;5028928;28;20052;-57
2021/12/29 03:50:30;;;;;;;241.07;39.35;;;3.50;99.90;;;;;;5028391;28;20102;-57
2021/12/29 03:52:57;;;;;;;247.32;40.63;;;3.50;99.90;;;;;;5027896;28;20029;-56
2021/12/29 03:55:23;;;;;;;232.07;42.15;;;3.50;99.90;;;;;;5028018;28;20049;-56
2021/12/29 03:57:48;;;;;;;172.82;39.13;;;3.50;99.90;;;;;;5028269;28;20526;-59
2021/12/29 04:00:16;;;;;;;137.10;37.65;;;3.50;99.90;;;;;;5027522;28;20041;-57
2021/12/29 04:02:43;;;;;;;152.98;39.03;;;3.50;99.90;;;;;;5022259;28;20038;-60
2021/12/29 04:05:11;;;;;;;146.48;38.47;;;3.50;99.90;;;;;;5024390;28;20044;-58
2021/12/29 04:07:37;;;;;;;180.77;39.95;;;3.40;99.90;;;;;;5028639;28;20021;-58
2021/12/29 04:10:04;;;;;;;140.50;37.60;;;3.40;99.90;;;;;;5027276;28;20211;-58
2021/12/29 04:12:30;;;;;;;156.43;36.25;;;3.50;99.90;;;;;;5028390;28;20055;-60
2021/12/29 04:14:56;;;;;;;138.30;36.80;;;3.50;99.90;;;;;;5023964;28;20033;-60
2021/12/29 04:17:28;;;;;;;170.32;36.58;;;3.40;99.90;;;;;;5026203;28;20060;-59
2021/12/29 04:22:38;;;;;;;152.95;34.25;;;3.50;99.90;;;;;;5017675;28;20045;-60
2021/12/29 04:25:05;;;;;;;124.47;34.80;;;3.50;99.90;;;;;;5023903;28;20030;-60
2021/12/29 04:27:30;;;;;;;114.88;34.35;;;3.50;99.90;;;;;;5028504;28;20052;-61
2021/12/29 04:29:56;;;;;;;110.00;33.30;;;3.50;99.90;;;;;;5024780;28;20499;-60
2021/12/29 04:32:22;;;;;;;100.07;31.05;;;3.50;99.90;;;;;;5009605;28;20038;-61
2021/12/29 04:34:47;;;;;;;117.43;33.05;;;3.50;99.90;;;;;;5026959;28;20026;-61
2021/12/29 04:37:13;;;;;;;103.57;33.25;;;3.50;99.90;;;;;;5027354;28;20029;-61
2021/12/29 04:39:39;;;;;;;105.82;34.08;;;3.60;99.90;;;;;;5027755;28;20103;-61
2021/12/29 04:42:04;;;;;;;103.20;32.05;;;3.50;99.90;;;;;;5027955;28;20037;-60
2021/12/29 04:44:30;;;;;;;96.60;32.22;;;3.50;99.90;;;;;;5025546;28;20033;-61
2021/12/29 04:46:57;;;;;;;98.15;31.27;;;3.50;99.90;;;;;;5033110;28;20025;-61
2021/12/29 04:49:27;;;;;;;83.07;29.55;;;3.50;99.90;;;;;;5031188;28;20033;-61
2021/12/29 04:52:03;;;;;;;87.28;29.20;;;3.50;99.90;;;;;;5030664;28;20112;-61
2021/12/29 04:54:32;;;;;;;81.15;28.50;;;3.50;99.90;;;;;;5023878;28;20045;-61
2021/12/29 04:56:58;;;;;;;77.95;28.13;;;3.50;99.90;;;;;;5031741;28;20331;-61
2021/12/29 04:59:26;;;;;;;79.00;28.00;;;3.50;99.90;;;;;;5031052;28;20042;-61
2021/12/29 05:01:52;;;;;;;72.88;28.05;;;3.50;99.90;;;;;;5022643;28;20084;-61
2021/12/29 05:04:33;;;;;;;65.38;26.73;;;3.50;99.90;;;;;;5026958;28;20033;-61
2021/12/29 05:09:45;;;;;;;76.75;27.42;;;3.50;99.90;;;;;;5020847;28;20032;-61
2021/12/29 05:12:10;;;;;;;67.55;27.13;;;3.50;99.90;;;;;;5032460;28;20332;-61
2021/12/29 05:14:37;;;;;;;62.53;25.98;;;3.60;99.90;;;;;;5031057;28;20034;-61
2021/12/29 05:17:05;;;;;;;73.07;27.92;;;3.60;99.90;;;;;;5032575;28;20053;-62
2021/12/29 05:19:31;;;;;;;74.53;27.98;;;3.60;99.90;;;;;;5031354;28;20046;-62
2021/12/29 05:21:57;;;;;;;78.45;27.92;;;3.60;99.90;;;;;;5029867;28;20041;-61
2021/12/29 05:24:23;;;;;;;66.55;26.45;;;3.60;99.90;;;;;;5011882;28;20046;-62
2021/12/29 05:26:49;;;;;;;71.13;26.88;;;3.60;99.90;;;;;;5032398;28;20087;-62
2021/12/29 05:29:15;;;;;;;69.00;26.60;;;3.60;99.90;;;;;;5027984;28;20030;-62
2021/12/29 05:31:40;;;;;;;67.20;26.40;;;3.60;99.90;;;;;;5030956;28;20140;-61
2021/12/29 05:34:06;;;;;;;71.55;26.40;;;3.60;99.90;;;;;;5027284;28;20034;-61
2021/12/29 05:36:32;;;;;;;75.65;27.60;;;3.60;99.90;;;;;;5030800;28;20045;-62
2021/12/29 05:38:58;;;;;;;81.03;30.92;;;3.60;99.90;;;;;;5022342;28;20045;-62
2021/12/29 05:41:24;;;;;;;67.82;26.33;;;3.60;99.90;;;;;;5029866;28;20132;-61
2021/12/29 05:43:50;;;;;;;77.75;26.45;;;3.60;99.90;;;;;;5030786;28;20530;-60
2021/12/29 05:46:15;;;;;;;72.53;27.40;;;3.60;99.90;;;;;;5030276;28;20034;-59
2021/12/29 05:48:41;;;;;;;72.32;27.05;;;3.60;99.90;;;;;;5031205;28;20164;-59
2021/12/29 05:51:07;;;;;;;66.35;26.58;;;3.60;99.90;;;;;;5030233;28;20048;-59
2021/12/29 05:53:33;;;;;;;66.50;25.67;;;3.60;99.90;;;;;;5029554;28;20025;-60
2021/12/29 05:55:59;;;;;;;70.88;27.02;;;3.60;99.90;;;;;;5026755;28;20495;-59
2021/12/29 05:58:25;;;;;;;68.75;26.45;;;3.60;99.90;;;;;;5029469;28;20037;-59
2021/12/29 06:00:51;;;;;;;70.25;26.67;;;3.60;99.90;;;;;;5030861;28;20474;-59
2021/12/29 06:03:19;;;;;;;66.38;26.33;;;3.60;99.90;;;;;;5028585;28;20033;-57
2021/12/29 06:05:44;;;;;;;64.57;25.88;;;3.70;99.90;;;;;;5024693;28;20041;-60
2021/12/29 06:08:10;;;;;;;70.53;26.65;;;3.70;99.90;;;;;;5029711;28;20033;-60
2021/12/29 06:10:36;;;;;;;66.18;27.58;;;3.70;99.90;;;;;;5030171;28;20037;-60
2021/12/29 06:13:01;;;;;;;72.00;27.42;;;3.70;99.90;;;;;;5029878;28;20028;-60
2021/12/29 06:15:27;;;;;;;67.90;28.45;;;3.70;99.90;;;;;;5024522;28;20032;-60
2021/12/29 06:17:53;;;;;;;68.18;27.27;;;3.70;99.90;;;;;;5029509;28;20053;-59
2021/12/29 06:20:19;;;;;;;77.35;28.63;;;3.70;99.90;;;;;;5030305;28;20034;-60
2021/12/29 06:22:45;;;;;;;67.38;26.48;;;3.70;99.90;;;;;;5028978;28;20021;-58
2021/12/29 06:25:13;;;;;;;68.10;26.75;;;3.70;99.90;;;;;;5030016;28;20087;-60
2021/12/29 06:27:40;;;;;;;66.28;26.73;;;3.60;99.90;;;;;;5007690;28;20088;-60
2021/12/29 06:30:08;;;;;;;68.90;28.73;;;3.60;99.90;;;;;;5028434;28;20061;-60
2021/12/29 06:32:34;;;;;;;67.45;27.88;;;3.60;99.90;;;;;;5028413;28;20498;-60
2021/12/29 06:35:00;;;;;;;69.72;26.55;;;3.60;99.90;;;;;;5028441;28;20025;-60
2021/12/29 06:37:25;;;;;;;63.40;27.05;;;3.60;99.90;;;;;;5031133;28;20025;-61
2021/12/29 06:39:51;;;;;;;66.47;28.45;;;3.60;99.90;;;;;;5029480;28;20093;-61
2021/12/29 06:42:18;;;;;;;62.13;27.15;;;3.70;99.90;;;;;;5011034;28;20305;-61
2021/12/29 06:44:46;;;;;;;64.00;28.05;;;3.70;99.90;;;;;;5019107;28;20034;-60
2021/12/29 06:47:13;;;;;;;69.15;27.10;;;3.70;99.90;;;;;;5027133;28;20040;-61
2021/12/29 06:49:39;;;;;;;68.22;27.70;;;3.70;99.90;;;;;;5023590;28;20083;-60
2021/12/29 06:52:06;;;;;;;64.82;27.15;;;3.70;99.90;;;;;;5029018;28;20029;-61
2021/12/29 06:54:32;;;;;;;65.43;28.23;;;3.60;99.90;;;;;;5024984;28;20032;-61
2021/12/29 06:56:58;;;;;;;67.30;28.00;;;3.60;99.90;;;;;;5023473;28;20061;-62
2021/12/29 06:59:24;;;;;;;65.57;28.80;;;3.60;99.90;;;;;;4995434;28;20465;-62
2021/12/29 07:01:50;;;;;;;64.40;27.42;;;3.60;99.90;;;;;;5029039;28;20096;-62
2021/12/29 07:04:16;;;;;;;65.35;27.33;;;3.60;99.90;;;;;;5028869;28;20116;-62
2021/12/29 07:06:42;;;;;;;68.63;28.58;;;3.60;99.90;;;;;;5022334;28;20032;-61
2021/12/29 07:09:07;;;;;;;66.68;28.80;;;3.60;99.90;;;;;;5024559;28;20033;-62
2021/12/29 07:11:34;;;;;;;69.57;29.27;;;3.60;99.90;;;;;;5028069;28;20041;-62
2021/12/29 07:14:03;;;;;;;70.20;28.40;;;3.60;99.90;;;;;;5026449;28;20033;-62
2021/12/29 07:16:29;;;;;;;68.88;27.88;;;3.60;99.90;;;;;;5024194;28;20029;-62
2021/12/29 07:18:55;;;;;;;65.75;28.60;;;3.60;99.90;;;;;;5028318;28;20045;-61
2021/12/29 07:21:20;;;;;;;73.90;28.85;;;3.60;99.90;;;;;;5019620;28;20076;-61
2021/12/29 07:23:46;;;;;;;63.55;29.10;;;3.70;99.90;;;;;;5027473;28;20483;-61
2021/12/29 07:26:12;;;;;;;73.05;30.13;;;3.70;99.90;;;;;;5027464;28;20033;-59
2021/12/29 07:28:38;;;;;;;66.63;28.02;;;3.60;99.90;;;;;;5011029;28;20391;-61
2021/12/29 07:31:04;;;;;;;68.63;29.17;;;3.70;99.90;;;;;;5025245;28;20025;-61
2021/12/29 07:33:32;;;;;;;74.63;29.80;;;3.70;99.90;;;;;;5029632;28;20087;-61
2021/12/29 07:35:58;;;;;;;72.53;28.80;;;3.70;99.90;;;;;;5030000;28;20030;-61
2021/12/29 07:38:23;;;;;;;74.82;28.48;;;3.70;99.90;;;;;;5012131;28;20380;-61
2021/12/29 07:40:49;;;;;;;71.85;29.33;;;3.70;99.90;;;;;;5029278;28;20096;-60
2021/12/29 07:43:15;;;;;;;74.18;29.33;;;3.70;99.90;;;;;;5003370;28;20030;-61
2021/12/29 07:45:42;;;;;;;71.57;28.58;;;3.70;99.90;;;;;;5012429;28;20534;-61
2021/12/29 07:48:09;;;;;;;68.82;29.33;;;3.70;99.90;;;;;;5027285;28;20029;-57
2021/12/29 07:50:36;;;;;;;74.20;28.25;;;3.60;99.90;;;;;;5028273;28;20063;-59
2021/12/29 07:53:03;;;;;;;72.18;28.73;;;3.60;99.90;;;;;;5029184;28;20434;-53
2021/12/29 07:55:29;;;;;;;75.93;29.10;;;3.60;99.90;;;;;;5029052;28;20471;-56
2021/12/29 07:57:55;;;;;;;72.47;29.80;;;3.60;99.90;;;;;;5011785;28;20436;-54
2021/12/29 08:00:21;;;;;;;72.82;28.08;;;3.60;99.90;;;;;;5026552;28;20104;-57
2021/12/29 08:02:47;;;;;;;82.80;30.75;;;3.60;99.90;;;;;;5021062;28;20617;-51
2021/12/29 08:05:13;;;;;;;75.45;30.65;;;3.60;99.90;;;;;;5026435;28;20101;-52
2021/12/29 08:07:39;;;;;;;78.10;31.15;;;3.60;99.90;;;;;;5022780;28;20119;-56
2021/12/29 08:10:06;;;;;;;73.10;29.65;;;3.60;99.90;;;;;;5025105;28;20071;-56
2021/12/29 08:12:32;;;;;;;76.05;30.90;;;3.60;99.90;;;;;;5029309;28;20533;-57
2021/12/29 08:14:57;;;;;;;73.78;29.75;;;3.60;99.90;;;;;;5000204;28;20417;-56
2021/12/29 08:17:23;;;;;;;73.60;30.17;;;3.60;99.90;;;;;;5015902;28;20116;-60
2021/12/29 08:19:50;;;;;;;83.78;30.63;;;3.60;99.90;;;;;;5015904;28;20044;-53
2021/12/29 08:22:17;;;;;;;79.53;30.55;;;3.60;99.90;;;;;;5028449;28;20623;-53
2021/12/29 08:24:43;;;;;;;87.68;31.98;;;3.60;99.90;;;;;;5029781;28;20029;-54
2021/12/29 08:27:10;;;;;;;87.47;31.17;;;3.60;99.90;;;;;;5031659;28;20033;-60
2021/12/29 08:29:37;;;;;;;84.35;30.90;;;3.60;99.90;;;;;;5020332;28;20021;-60
2021/12/29 08:32:03;;;;;;;81.63;31.85;;;3.60;99.90;;;;;;5033934;28;20033;-60
2021/12/29 08:34:29;;;;;;;82.78;31.77;;;3.60;99.90;;;;;;5027103;28;20037;-59
2021/12/29 08:36:55;;;;;;;87.70;32.88;;;3.60;99.90;;;;;;5024061;28;20056;-56
2021/12/29 08:39:21;;;;;;;81.40;32.80;;;3.60;99.90;;;;;;5020562;28;20041;-57
2021/12/29 08:41:49;;;;;;;85.53;33.00;;;3.70;99.90;;;;;;5022766;28;20036;-56
2021/12/29 08:44:15;;;;;;;83.68;31.95;;;3.70;99.90;;;;;;5032458;28;20041;-57
2021/12/29 08:46:42;;;;;;;90.70;31.58;;;3.80;99.90;;;;;;5013548;28;20037;-60
2021/12/29 08:49:07;;;;;;;85.72;32.38;;;3.80;99.90;;;;;;5032434;28;20505;-55
2021/12/29 08:51:33;;;;;;;82.50;31.50;;;3.90;99.90;;;;;;5027736;28;20433;-54
2021/12/29 08:53:59;;;;;;;80.15;31.42;;;3.80;99.90;;;;;;5031771;28;20021;-59
2021/12/29 08:56:25;;;;;;;75.68;30.55;;;3.80;99.90;;;;;;5032879;28;20037;-60
2021/12/29 08:58:52;;;;;;;82.15;32.00;;;3.70;99.90;;;;;;5032657;28;20029;-61
2021/12/29 09:01:19;;;;;;;77.68;30.40;;;3.70;99.90;;;;;;5031920;28;20040;-59
2021/12/29 09:03:47;;;;;;;89.43;32.13;;;3.80;99.90;;;;;;5032032;28;20056;-59
2021/12/29 09:06:12;;;;;;;83.30;31.23;;;3.70;99.90;;;;;;5030403;28;20029;-56
2021/12/29 09:08:38;;;;;;;75.00;29.73;;;3.80;99.90;;;;;;5032465;28;20030;-56
2021/12/29 09:11:04;;;;;;;92.60;33.75;;;3.80;99.90;;;;;;5031058;28;20206;-57
2021/12/29 09:13:30;;;;;;;87.95;32.13;;;3.80;99.90;;;;;;5024450;28;20029;-58
2021/12/29 09:15:57;;;;;;;92.47;33.05;;;3.80;99.90;;;;;;5031083;28;20018;-57
2021/12/29 09:18:28;;;;;;;85.93;30.77;;;3.80;99.90;;;;;;5031229;28;20076;-55
2021/12/29 09:20:55;;;;;;;84.10;31.80;;;3.80;99.90;;;;;;5009540;28;20043;-60
2021/12/29 09:23:21;;;;;;;82.80;31.60;;;3.80;99.90;;;;;;5025642;28;20033;-54
2021/12/29 09:25:48;;;;;;;86.05;30.75;;;3.80;99.90;;;;;;5014435;28;20022;-57
2021/12/29 09:28:16;;;;;;;88.35;31.33;;;3.80;99.90;;;;;;5025349;28;20026;-57
2021/12/29 09:30:46;;;;;;;81.38;30.23;;;3.80;99.90;;;;;;5032327;28;20093;-58
2021/12/29 09:33:12;;;;;;;90.28;32.58;;;3.90;99.90;;;;;;5025405;28;20025;-58
2021/12/29 09:35:38;;;;;;;85.82;31.58;;;3.90;99.90;;;;;;5032312;28;20032;-52
2021/12/29 09:38:06;;;;;;;87.07;30.50;;;3.90;99.90;;;;;;5012721;28;20041;-55
2021/12/29 09:40:33;;;;;;;83.55;29.30;;;3.90;99.90;;;;;;5025323;28;20069;-58
2021/12/29 09:42:59;;;;;;;85.45;29.92;;;3.90;99.90;;;;;;5030775;28;20211;-55
2021/12/29 09:45:25;;;;;;;86.88;30.75;;;3.90;99.90;;;;;;5012234;28;20033;-58
2021/12/29 09:47:51;;;;;;;85.47;31.58;;;3.90;99.90;;;;;;5023757;28;20040;-60
2021/12/29 09:50:19;;;;;;;91.30;33.97;;;3.90;99.90;;;;;;5030191;28;20013;-56
2021/12/29 09:52:45;;;;;;;87.80;33.45;;;3.80;99.90;;;;;;5030851;28;20476;-54
2021/12/29 09:55:13;;;;;;;90.35;33.08;;;3.90;99.90;;;;;;5026199;28;20101;-60
2021/12/29 09:57:44;;;;;;;91.15;32.90;;;3.80;99.90;;;;;;4996095;28;20026;-57
2021/12/29 10:00:19;;;;;;;88.38;33.03;;;3.70;99.90;;;;;;5012723;28;20040;-61
2021/12/29 10:02:45;;;;;;;83.28;32.17;;;3.70;99.90;;;;;;5033442;28;20112;-60
2021/12/29 10:05:10;;;;;;;80.50;32.28;;;3.80;99.90;;;;;;5036500;28;20037;-59
2021/12/29 10:07:36;;;;;;;82.70;32.05;;;3.80;99.90;;;;;;5027268;28;20024;-55
2021/12/29 10:10:14;;;;;;;86.75;31.77;;;3.80;99.90;;;;;;5032698;28;20079;-58
2021/12/29 10:12:44;;;;;;;84.75;29.63;;;3.90;99.90;;;;;;5031747;28;20116;-57
2021/12/29 10:15:09;;;;;;;82.63;30.85;;;3.90;99.90;;;;;;5030978;28;20040;-60
2021/12/29 10:17:35;;;;;;;84.45;31.48;;;3.80;99.90;;;;;;5013694;28;20026;-55
2021/12/29 10:20:11;;;;;;;80.30;31.20;;;3.90;99.90;;;;;;5029574;28;20481;-58
2021/12/29 10:22:37;;;;;;;84.93;31.00;;;4.00;99.90;;;;;;5022650;28;20021;-55
2021/12/29 10:25:24;;;;;;;87.20;32.20;;;4.00;99.90;;;;;;5028277;28;20112;-55
2021/12/29 10:27:51;;;;;;;92.07;33.72;;;4.00;99.90;;;;;;5006867;28;20029;-54
2021/12/29 10:30:19;;;;;;;86.32;32.05;;;4.00;99.90;;;;;;5013441;28;20028;-58
2021/12/29 10:32:46;;;;;;;85.93;31.92;;;4.00;99.90;;;;;;5031942;28;20045;-57
2021/12/29 10:35:28;;;;;;;91.70;33.53;;;4.00;99.90;;;;;;5025467;28;20080;-53
2021/12/29 10:38:08;;;;;;;95.85;34.33;;;3.90;99.90;;;;;;5031332;28;20112;-57
2021/12/29 10:40:34;;;;;;;91.60;33.78;;;3.90;99.90;;;;;;5022752;28;20465;-59
2021/12/29 10:43:00;;;;;;;93.15;35.67;;;3.90;99.90;;;;;;5030076;28;20818;-58
2021/12/29 10:45:32;;;;;;;89.45;33.47;;;3.90;99.90;;;;;;5030457;28;20041;-55
2021/12/29 10:47:58;;;;;;;90.53;35.73;;;4.00;99.90;;;;;;5031736;28;20483;-61
2021/12/29 10:50:25;;;;;;;103.80;36.72;;;4.00;99.90;;;;;;5013029;28;20033;-57
2021/12/29 10:52:54;;;;;;;105.10;37.45;;;4.00;99.90;;;;;;5028929;28;20025;-63
2021/12/29 10:55:32;;;;;;;99.13;36.15;;;4.00;99.90;;;;;;5028249;28;20167;-58
2021/12/29 10:58:06;;;;;;;100.90;36.88;;;4.00;99.90;;;;;;5019168;28;20038;-54
2021/12/29 11:00:32;;;;;;;93.57;36.42;;;4.00;99.90;;;;;;5006812;28;20415;-56
2021/12/29 11:03:08;;;;;;;104.07;35.90;;;4.10;99.90;;;;;;5026185;28;20029;-59
2021/12/29 11:05:39;;;;;;;94.95;35.45;;;4.20;99.90;;;;;;5012034;28;20029;-57
2021/12/29 11:08:10;;;;;;;103.40;39.20;;;4.20;99.90;;;;;;5011708;28;20110;-58
2021/12/29 11:10:37;;;;;;;102.55;37.40;;;4.30;99.90;;;;;;5035638;28;20072;-59
2021/12/29 11:13:03;;;;;;;102.25;37.78;;;4.30;99.90;;;;;;5038061;28;20064;-62
2021/12/29 11:15:32;;;;;;;111.03;37.88;;;4.30;99.90;;;;;;5030609;28;20065;-59
2021/12/29 11:18:06;;;;;;;110.85;38.13;;;4.30;99.90;;;;;;5026902;28;20466;-58
2021/12/29 11:20:33;;;;;;;105.60;38.15;;;4.40;99.90;;;;;;5022131;28;20037;-60
2021/12/29 11:23:16;;;;;;;97.60;37.92;;;4.40;99.90;;;;;;5010548;28;20253;-61
2021/12/29 11:25:44;;;;;;;104.65;38.22;;;4.40;99.90;;;;;;5011753;28;20113;-61
2021/12/29 11:28:27;;;;;;;105.70;38.35;;;4.30;99.90;;;;;;4994891;28;20554;-59
2021/12/29 11:30:54;;;;;;;100.78;39.03;;;4.30;99.90;;;;;;5011790;28;20026;-54
2021/12/29 11:33:21;;;;;;;112.35;41.10;;;4.30;99.90;;;;;;5028730;28;20030;-57
2021/12/29 11:35:53;;;;;;;108.20;37.85;;;4.30;99.90;;;;;;5029777;28;20034;-57
2021/12/29 11:38:20;;;;;;;107.88;39.30;;;4.40;99.90;;;;;;5020643;28;20021;-61
2021/12/29 11:40:53;;;;;;;99.88;38.33;;;4.40;99.90;;;;;;5011948;28;20026;-57
2021/12/29 11:43:20;;;;;;;100.93;39.17;;;4.40;99.90;;;;;;5003856;28;20191;-57
2021/12/29 11:45:49;;;;;;;110.10;40.40;;;4.40;99.90;;;;;;5029585;28;20029;-56
2021/12/29 11:48:20;;;;;;;103.40;40.30;;;4.50;99.90;;;;;;5026837;28;20486;-57
2021/12/29 11:50:51;;;;;;;96.45;37.55;;;4.50;99.90;;;;;;5008679;28;20451;-58
2021/12/29 11:53:30;;;;;;;113.30;38.03;;;4.50;99.90;;;;;;5025643;28;20467;-56
2021/12/29 11:56:06;;;;;;;105.20;38.75;;;4.60;99.90;;;;;;5027656;28;20030;-56
2021/12/29 11:58:35;;;;;;;104.50;40.00;;;4.60;99.90;;;;;;5029036;28;20036;-59
2021/12/29 12:01:06;;;;;;;107.72;39.60;;;4.60;99.90;;;;;;5028490;28;20026;-57
2021/12/29 12:03:55;;;;;;;109.88;42.17;;;4.60;99.90;;;;;;5029365;28;20029;-61
2021/12/29 12:06:24;;;;;;;118.82;41.55;;;4.60;99.90;;;;;;5006434;28;20034;-59
2021/12/29 12:09:09;;;;;;;115.47;40.05;;;4.60;99.90;;;;;;5029475;28;20114;-59
2021/12/29 12:11:37;;;;;;;112.85;39.35;;;4.60;99.90;;;;;;5027269;28;20025;-60
2021/12/29 12:14:15;;;;;;;108.45;38.45;;;4.70;99.90;;;;;;5028900;28;20033;-59
2021/12/29 12:17:15;;;;;;;113.78;37.80;;;4.80;99.90;;;;;;5011849;28;20428;-57
2021/12/29 12:19:42;;;;;;;107.85;37.85;;;4.70;99.90;;;;;;5003480;28;20457;-59
2021/12/29 12:22:13;;;;;;;109.82;38.15;;;4.70;99.90;;;;;;5025206;28;20025;-58
2021/12/29 12:24:41;;;;;;;103.55;34.78;;;4.70;99.90;;;;;;5010825;28;20352;-56
2021/12/29 12:27:15;;;;;;;113.20;37.25;;;4.70;99.90;;;;;;5029038;28;20502;-59
2021/12/29 12:29:43;;;;;;;106.03;36.97;;;4.60;99.90;;;;;;5011041;28;20041;-60
2021/12/29 12:32:17;;;;;;;115.50;37.65;;;4.60;99.90;;;;;;5028991;28;20025;-57
2021/12/29 12:34:48;;;;;;;107.63;35.50;;;4.60;99.90;;;;;;5009132;28;20065;-57
2021/12/29 12:37:21;;;;;;;99.50;35.05;;;4.60;99.90;;;;;;5028432;28;20033;-58
2021/12/29 12:39:59;;;;;;;104.63;34.10;;;4.60;99.90;;;;;;5023087;28;20028;-57
2021/12/29 12:42:25;;;;;;;111.93;36.10;;;4.60;99.90;;;;;;5027361;28;20439;-56